Time;durP1;ratioP1;P1;durP2;ratioP2;P2;SDS_P1;SDS_P2;PMS_P1;PMS_P2;Temp;Humidity;BMP_temperature;BMP_pressure;BME280_temperature;BME280_humidity;BME280_pressure;Samples;Min_cycle;Max_cycle;Signal;HPM_P1;HPM_P2
2021/12/16 00:03:11;;;;;;;8.87;6.30;;;;;;;;;;5013493;28;20290;-74
2021/12/16 00:19:39;;;;;;;6.97;5.63;;;;;;;;;;4977075;28;22096;-76
2021/12/16 00:33:16;;;;;;;7.77;5.83;;;;;;;;;;5018886;28;20856;-74
2021/12/16 00:35:43;;;;;;;10.20;5.60;;;;;;;;;;5001638;28;20220;-74
2021/12/16 00:38:10;;;;;;;7.93;5.37;;;;;;;;;;4996226;28;20225;-74
2021/12/16 00:40:40;;;;;;;6.43;5.27;;;;;;;;;;4980493;28;20584;-74
2021/12/16 00:43:22;;;;;;;8.77;5.67;;;;;;;;;;4995391;28;20221;-74
2021/12/16 00:54:09;;;;;;;8.07;5.20;;;;;;;;;;5031341;28;20267;-74
2021/12/16 00:56:43;;;;;;;8.83;5.30;;;;;;;;;;5016584;28;20227;-74
2021/12/16 00:59:13;;;;;;;6.23;4.73;;;;;;;;;;4995504;28;20613;-75
2021/12/16 01:04:55;;;;;;;8.20;4.80;;;;;;;;;;5024970;28;20223;-74
2021/12/16 01:33:35;;;;;;;5.73;4.90;;;;;;;;;;4998230;28;20228;-76
2021/12/16 01:36:02;;;;;;;8.63;6.50;;;;;;;;;;4983955;28;20225;-75
2021/12/16 01:54:54;;;;;;;8.57;5.87;;;;;;;;;;5006011;28;20597;-75
2021/12/16 01:57:28;;;;;;;10.43;6.13;;;;;;;;;;4995918;28;20686;-75
2021/12/16 02:00:04;;;;;;;7.87;5.80;;;;;;;;;;4990017;28;20243;-75
2021/12/16 02:02:44;;;;;;;12.93;6.27;;;;;;;;;;5016399;28;20251;-76
2021/12/16 02:05:51;;;;;;;9.40;6.20;;;;;;;;;;5003792;28;20227;-75
2021/12/16 02:08:21;;;;;;;8.87;6.90;;;;;;;;;;5011143;28;20575;-75
2021/12/16 02:11:19;;;;;;;9.57;6.50;;;;;;;;;;5026663;28;20228;-75
2021/12/16 02:27:23;;;;;;;9.77;7.03;;;;;;;;;;5030130;28;20247;-76
2021/12/16 02:27:42;;;;;;;12.13;8.47;;;;;;;;;;5010701;28;20248;-74
2021/12/16 02:37:52;;;;;;;14.70;9.57;;;;;;;;;;4981220;28;20216;-75
2021/12/16 02:40:18;;;;;;;12.03;9.63;;;;;;;;;;5000325;28;20227;-76
2021/12/16 02:48:36;;;;;;;20.00;10.60;;;;;;;;;;4995624;28;20224;-76
2021/12/16 02:51:19;;;;;;;14.47;11.27;;;;;;;;;;5007747;28;20224;-75
2021/12/16 02:53:49;;;;;;;14.00;11.20;;;;;;;;;;5013200;28;20224;-76
2021/12/16 02:56:17;;;;;;;17.27;10.93;;;;;;;;;;4983593;28;20251;-76
2021/12/16 02:58:49;;;;;;;17.37;11.57;;;;;;;;;;5010656;28;20705;-75
2021/12/16 03:01:25;;;;;;;18.47;12.30;;;;;;;;;;4990505;28;20220;-75
2021/12/16 03:03:52;;;;;;;16.87;11.40;;;;;;;;;;5014130;28;20220;-75
2021/12/16 03:06:17;;;;;;;19.97;11.93;;;;;;;;;;4993092;28;20217;-75
2021/12/16 03:08:45;;;;;;;22.13;13.07;;;;;;;;;;5009496;28;20587;-75
2021/12/16 03:11:23;;;;;;;15.77;11.63;;;;;;;;;;5009544;28;20308;-76
2021/12/16 03:16:54;;;;;;;24.80;13.30;;;;;;;;;;5000712;28;20789;-75
2021/12/16 03:19:29;;;;;;;18.00;12.30;;;;;;;;;;4997200;28;20233;-75
2021/12/16 03:21:58;;;;;;;17.80;13.23;;;;;;;;;;5021502;28;20305;-75
2021/12/16 03:30:24;;;;;;;24.17;13.70;;;;;;;;;;4962193;28;20224;-75
2021/12/16 03:38:45;;;;;;;25.30;15.30;;;;;;;;;;5029544;28;20224;-75
2021/12/16 03:41:11;;;;;;;25.17;15.37;;;;;;;;;;5009720;28;20227;-75
2021/12/16 03:43:37;;;;;;;21.53;15.47;;;;;;;;;;4992529;28;20221;-76
2021/12/16 03:48:48;;;;;;;28.50;15.93;;;;;;;;;;4978339;28;20235;-76
2021/12/16 03:51:26;;;;;;;23.43;16.20;;;;;;;;;;5013783;28;20310;-76
2021/12/16 03:53:55;;;;;;;27.13;16.97;;;;;;;;;;5012790;28;20560;-76
2021/12/16 03:56:29;;;;;;;27.93;17.50;;;;;;;;;;5007279;28;20216;-76
2021/12/16 03:59:10;;;;;;;24.30;16.77;;;;;;;;;;4995367;28;20769;-76
2021/12/16 04:01:48;;;;;;;32.80;18.23;;;;;;;;;;4988666;28;20228;-76
2021/12/16 04:04:23;;;;;;;29.10;19.37;;;;;;;;;;5028747;28;20220;-76
2021/12/16 04:06:49;;;;;;;33.37;19.80;;;;;;;;;;5005449;28;20219;-75
2021/12/16 04:09:19;;;;;;;29.37;19.10;;;;;;;;;;5005690;28;20598;-76
2021/12/16 04:12:11;;;;;;;30.07;19.23;;;;;;;;;;5014242;28;20215;-76
2021/12/16 04:14:38;;;;;;;34.37;20.57;;;;;;;;;;5014207;28;20222;-76
2021/12/16 04:17:04;;;;;;;29.10;19.30;;;;;;;;;;5025706;28;20278;-75
2021/12/16 04:19:39;;;;;;;35.57;20.33;;;;;;;;;;5044700;28;20227;-75
2021/12/16 04:22:09;;;;;;;37.43;21.03;;;;;;;;;;5002489;28;20731;-75
2021/12/16 04:24:41;;;;;;;39.83;21.63;;;;;;;;;;5032640;28;20227;-75
2021/12/16 04:27:09;;;;;;;38.73;22.97;;;;;;;;;;5024335;28;20612;-76
2021/12/16 04:29:44;;;;;;;32.57;22.03;;;;;;;;;;5001182;28;20220;-76
2021/12/16 04:32:12;;;;;;;40.23;24.03;;;;;;;;;;4998555;28;20237;-76
2021/12/16 04:34:38;;;;;;;40.00;24.00;;;;;;;;;;5012211;28;20299;-75
2021/12/16 04:37:05;;;;;;;40.57;23.13;;;;;;;;;;5025824;28;20220;-77
2021/12/16 04:39:34;;;;;;;36.77;22.70;;;;;;;;;;5003460;28;20291;-76
2021/12/16 04:42:02;;;;;;;39.53;23.63;;;;;;;;;;5020760;28;20244;-75
2021/12/16 04:44:32;;;;;;;38.83;23.93;;;;;;;;;;5023376;28;20215;-75
2021/12/16 04:46:59;;;;;;;41.13;23.97;;;;;;;;;;5018683;28;20236;-76
2021/12/16 04:49:27;;;;;;;41.83;24.37;;;;;;;;;;4977910;28;20690;-76
2021/12/16 04:51:59;;;;;;;45.23;25.23;;;;;;;;;;4996657;28;20209;-76
2021/12/16 04:54:29;;;;;;;42.13;25.23;;;;;;;;;;5029891;28;20228;-76
2021/12/16 04:56:58;;;;;;;40.23;24.90;;;;;;;;;;5012296;28;20327;-76
2021/12/16 04:59:26;;;;;;;48.03;25.70;;;;;;;;;;5010167;28;20252;-76
2021/12/16 05:02:00;;;;;;;45.50;26.50;;;;;;;;;;4995908;28;20255;-76
2021/12/16 05:04:47;;;;;;;49.73;26.93;;;;;;;;;;5017986;28;20244;-75
2021/12/16 05:07:13;;;;;;;46.07;27.27;;;;;;;;;;5028197;28;20213;-76
2021/12/16 05:10:19;;;;;;;45.17;27.53;;;;;;;;;;4996927;28;20220;-75
2021/12/16 05:12:49;;;;;;;47.80;27.60;;;;;;;;;;5016771;28;20295;-75
2021/12/16 05:15:23;;;;;;;51.47;27.47;;;;;;;;;;5032332;28;20265;-76
2021/12/16 05:17:54;;;;;;;46.93;28.30;;;;;;;;;;5015941;28;20301;-76
2021/12/16 05:20:25;;;;;;;46.93;27.57;;;;;;;;;;5014447;28;20227;-74
2021/12/16 05:28:10;;;;;;;53.17;29.20;;;;;;;;;;4997257;28;20821;-76
2021/12/16 05:30:39;;;;;;;55.33;30.17;;;;;;;;;;4996280;28;20217;-74
2021/12/16 05:33:04;;;;;;;55.43;29.67;;;;;;;;;;4992124;28;20714;-76
2021/12/16 05:35:30;;;;;;;54.03;29.03;;;;;;;;;;4967203;28;20213;-76
2021/12/16 05:37:57;;;;;;;57.13;32.47;;;;;;;;;;5010695;28;20225;-75
2021/12/16 05:40:26;;;;;;;57.10;31.40;;;;;;;;;;4979449;28;20327;-76
2021/12/16 05:43:18;;;;;;;59.53;32.07;;;;;;;;;;4994766;28;20997;-75
2021/12/16 05:45:44;;;;;;;61.63;33.30;;;;;;;;;;4979103;28;20226;-76
2021/12/16 05:48:12;;;;;;;63.60;31.90;;;;;;;;;;5000057;28;20216;-75
2021/12/16 05:50:39;;;;;;;63.73;32.67;;;;;;;;;;4991739;28;20217;-75
2021/12/16 05:53:07;;;;;;;67.37;33.43;;;;;;;;;;5008213;28;20234;-76
2021/12/16 05:55:32;;;;;;;62.93;33.47;;;;;;;;;;4993730;28;20225;-75
2021/12/16 05:58:37;;;;;;;62.17;32.13;;;;;;;;;;5011810;28;20780;-74
2021/12/16 06:01:06;;;;;;;65.60;33.57;;;;;;;;;;5014322;28;20739;-76
2021/12/16 06:03:32;;;;;;;64.13;32.90;;;;;;;;;;5008179;28;20311;-75
2021/12/16 06:06:03;;;;;;;63.67;32.77;;;;;;;;;;4979294;28;20244;-76
2021/12/16 06:08:34;;;;;;;68.33;33.87;;;;;;;;;;4985548;28;20211;-75
2021/12/16 06:13:40;;;;;;;72.70;33.57;;;;;;;;;;5019344;28;20669;-75
2021/12/16 06:29:15;;;;;;;66.27;33.80;;;;;;;;;;4999786;28;20633;-75
2021/12/16 06:31:40;;;;;;;62.70;33.00;;;;;;;;;;5016859;28;20227;-75
2021/12/16 06:34:08;;;;;;;70.37;33.13;;;;;;;;;;5007310;28;20567;-76
2021/12/16 06:36:36;;;;;;;64.63;32.10;;;;;;;;;;5003249;28;20308;-76
2021/12/16 06:39:06;;;;;;;67.30;33.33;;;;;;;;;;4987120;28;20228;-75
2021/12/16 06:41:38;;;;;;;61.03;33.03;;;;;;;;;;4977634;28;20217;-76
2021/12/16 06:44:30;;;;;;;69.27;32.27;;;;;;;;;;5016088;28;20576;-76
2021/12/16 06:47:07;;;;;;;72.83;32.67;;;;;;;;;;4998270;28;20270;-75
2021/12/16 06:49:37;;;;;;;67.13;33.13;;;;;;;;;;5005674;28;20270;-75
2021/12/16 06:52:05;;;;;;;79.60;34.97;;;;;;;;;;4993498;28;20304;-75
2021/12/16 06:54:38;;;;;;;66.70;33.97;;;;;;;;;;4985884;28;20224;-76
2021/12/16 06:57:21;;;;;;;71.20;33.50;;;;;;;;;;4999770;28;20224;-75
2021/12/16 07:00:04;;;;;;;74.20;33.40;;;;;;;;;;4992320;28;20235;-76
2021/12/16 07:04:58;;;;;;;71.53;33.57;;;;;;;;;;5003857;28;20232;-75
2021/12/16 07:07:23;;;;;;;73.47;32.90;;;;;;;;;;5029848;28;20266;-75
2021/12/16 07:09:51;;;;;;;68.03;31.90;;;;;;;;;;5005618;28;20231;-75
2021/12/16 07:12:25;;;;;;;68.33;32.87;;;;;;;;;;4993625;28;20220;-75
2021/12/16 07:14:53;;;;;;;69.93;32.17;;;;;;;;;;4986497;28;20303;-75
2021/12/16 07:17:18;;;;;;;71.20;32.40;;;;;;;;;;5025901;28;20273;-76
2021/12/16 07:19:46;;;;;;;69.03;32.50;;;;;;;;;;4993008;28;20240;-76
2021/12/16 07:22:12;;;;;;;66.23;32.50;;;;;;;;;;5009122;28;20322;-76
2021/12/16 07:24:40;;;;;;;72.67;33.97;;;;;;;;;;5014047;28;20220;-76
2021/12/16 07:27:08;;;;;;;65.40;32.57;;;;;;;;;;5030456;28;20220;-75
2021/12/16 07:29:34;;;;;;;69.40;32.80;;;;;;;;;;4994247;28;20270;-74
2021/12/16 07:32:02;;;;;;;70.60;33.60;;;;;;;;;;4993553;28;20668;-75
2021/12/16 07:34:30;;;;;;;70.83;32.37;;;;;;;;;;5011249;28;20571;-74
2021/12/16 07:37:04;;;;;;;78.77;32.70;;;;;;;;;;5005518;28;20216;-75
2021/12/16 07:39:38;;;;;;;70.10;32.20;;;;;;;;;;4995803;28;20779;-75
2021/12/16 07:42:08;;;;;;;61.13;30.77;;;;;;;;;;5014473;28;20223;-74
2021/12/16 07:44:36;;;;;;;63.37;30.60;;;;;;;;;;5006842;28;20614;-74
2021/12/16 07:47:07;;;;;;;66.30;31.43;;;;;;;;;;5034122;28;20238;-75
2021/12/16 07:49:39;;;;;;;61.43;30.90;;;;;;;;;;5021079;28;20231;-74
2021/12/16 07:52:09;;;;;;;68.37;31.67;;;;;;;;;;5032217;28;20301;-75
2021/12/16 07:54:39;;;;;;;66.40;30.07;;;;;;;;;;5044166;28;20652;-74
2021/12/16 07:57:07;;;;;;;60.13;31.13;;;;;;;;;;5036585;28;20219;-74
2021/12/16 07:59:33;;;;;;;59.90;29.70;;;;;;;;;;5037056;28;20227;-74
2021/12/16 08:01:59;;;;;;;57.00;29.00;;;;;;;;;;4996968;28;20286;-74
2021/12/16 08:04:31;;;;;;;60.53;29.37;;;;;;;;;;5046769;28;20220;-74
2021/12/16 08:06:59;;;;;;;56.27;28.50;;;;;;;;;;4999481;28;20701;-74
2021/12/16 08:09:28;;;;;;;57.57;29.03;;;;;;;;;;5014505;28;20201;-74
2021/12/16 08:11:54;;;;;;;57.87;30.10;;;;;;;;;;5008640;28;20287;-74
2021/12/16 08:14:25;;;;;;;52.90;29.43;;;;;;;;;;4996540;28;20607;-74
2021/12/16 08:16:51;;;;;;;57.07;29.83;;;;;;;;;;5028756;28;20242;-74
2021/12/16 08:19:16;;;;;;;62.43;28.50;;;;;;;;;;5032393;28;20781;-75
2021/12/16 08:21:42;;;;;;;62.67;31.40;;;;;;;;;;5012722;28;20228;-74
2021/12/16 08:24:14;;;;;;;62.97;31.07;;;;;;;;;;4996665;28;20324;-74
2021/12/16 08:26:44;;;;;;;66.40;31.23;;;;;;;;;;5027368;28;20216;-74
2021/12/16 08:29:14;;;;;;;58.07;29.83;;;;;;;;;;5008115;28;20224;-74
2021/12/16 08:31:40;;;;;;;58.63;30.57;;;;;;;;;;5017591;28;20820;-74
2021/12/16 08:34:08;;;;;;;58.97;30.37;;;;;;;;;;5011411;28;20225;-75
2021/12/16 08:36:34;;;;;;;57.77;31.27;;;;;;;;;;4995786;28;20240;-75
2021/12/16 08:39:12;;;;;;;61.13;30.23;;;;;;;;;;5000644;28;20248;-74
2021/12/16 08:41:40;;;;;;;57.93;29.73;;;;;;;;;;4981464;28;20350;-74
2021/12/16 08:44:05;;;;;;;59.10;29.80;;;;;;;;;;5023909;28;20294;-73
2021/12/16 08:46:33;;;;;;;54.53;28.73;;;;;;;;;;5024093;28;20681;-73
2021/12/16 08:49:01;;;;;;;51.97;29.37;;;;;;;;;;5015323;28;20230;-75
2021/12/16 08:51:32;;;;;;;51.77;27.17;;;;;;;;;;5024701;28;20220;-73
2021/12/16 08:54:00;;;;;;;48.37;26.23;;;;;;;;;;4963340;28;20728;-73
2021/12/16 08:56:30;;;;;;;47.03;25.63;;;;;;;;;;4995306;28;20231;-73
2021/12/16 08:58:56;;;;;;;46.37;24.50;;;;;;;;;;5011924;28;20270;-76
2021/12/16 09:01:24;;;;;;;46.60;25.30;;;;;;;;;;5017618;28;20239;-74
2021/12/16 09:03:55;;;;;;;41.47;23.37;;;;;;;;;;5016038;28;20226;-75
2021/12/16 09:06:25;;;;;;;42.33;23.10;;;;;;;;;;5028531;28;20221;-76
2021/12/16 09:08:51;;;;;;;40.13;21.63;;;;;;;;;;5031331;28;20669;-75
2021/12/16 09:11:20;;;;;;;42.87;21.73;;;;;;;;;;5028598;28;20213;-75
2021/12/16 09:13:46;;;;;;;41.10;23.03;;;;;;;;;;4980138;28;20261;-76
2021/12/16 09:16:17;;;;;;;42.07;24.30;;;;;;;;;;5014314;28;20766;-74
2021/12/16 09:18:54;;;;;;;45.43;24.33;;;;;;;;;;5016618;28;20228;-74
2021/12/16 09:21:22;;;;;;;39.83;20.77;;;;;;;;;;5029081;28;20663;-74
2021/12/16 09:23:48;;;;;;;37.63;20.93;;;;;;;;;;4980096;28;20224;-75
2021/12/16 09:26:22;;;;;;;38.97;21.47;;;;;;;;;;4999652;28;20314;-75
2021/12/16 09:28:47;;;;;;;33.00;19.37;;;;;;;;;;5016352;28;20303;-74
2021/12/16 09:31:15;;;;;;;35.70;20.27;;;;;;;;;;5014387;28;20765;-74
2021/12/16 09:33:45;;;;;;;30.40;20.57;;;;;;;;;;4995570;28;20284;-74
2021/12/16 09:36:11;;;;;;;35.73;19.37;;;;;;;;;;4979044;28;20271;-74
2021/12/16 09:38:38;;;;;;;31.80;18.27;;;;;;;;;;5014945;28;20224;-74
2021/12/16 09:41:03;;;;;;;32.30;17.23;;;;;;;;;;5014750;28;20228;-75
2021/12/16 09:43:34;;;;;;;30.77;17.70;;;;;;;;;;4997495;28;20646;-75
2021/12/16 09:46:01;;;;;;;29.57;16.90;;;;;;;;;;4995848;28;20221;-75
2021/12/16 09:48:27;;;;;;;27.13;17.00;;;;;;;;;;5027703;28;20630;-75
2021/12/16 09:51:00;;;;;;;27.53;17.23;;;;;;;;;;5015300;28;20224;-75
2021/12/16 09:53:26;;;;;;;28.30;16.27;;;;;;;;;;5026298;28;20213;-74
2021/12/16 09:55:59;;;;;;;25.57;16.70;;;;;;;;;;5007860;28;20216;-74
2021/12/16 09:58:25;;;;;;;26.10;15.50;;;;;;;;;;5018226;28;20225;-75
2021/12/16 10:00:53;;;;;;;22.23;14.37;;;;;;;;;;5031203;28;20226;-74
2021/12/16 10:03:21;;;;;;;23.47;14.47;;;;;;;;;;5009980;28;20233;-74
2021/12/16 10:05:48;;;;;;;20.10;13.47;;;;;;;;;;5010408;28;20224;-74
2021/12/16 10:08:19;;;;;;;20.50;13.37;;;;;;;;;;5005992;28;20224;-74
2021/12/16 10:10:49;;;;;;;18.83;13.10;;;;;;;;;;5017152;28;20237;-74
2021/12/16 10:13:22;;;;;;;19.83;12.33;;;;;;;;;;5010536;28;20244;-74
2021/12/16 10:18:20;;;;;;;17.83;11.80;;;;;;;;;;5022986;28;20247;-75
2021/12/16 10:20:52;;;;;;;16.20;11.20;;;;;;;;;;5006023;28;20255;-75
2021/12/16 10:23:27;;;;;;;16.60;11.10;;;;;;;;;;4993369;28;20236;-75
2021/12/16 10:25:55;;;;;;;16.97;11.13;;;;;;;;;;4994637;28;20227;-75
2021/12/16 10:28:26;;;;;;;18.60;10.63;;;;;;;;;;5009298;28;20230;-75
2021/12/16 10:31:13;;;;;;;14.90;9.77;;;;;;;;;;5018891;28;20221;-75
2021/12/16 10:33:47;;;;;;;13.13;9.80;;;;;;;;;;5002357;28;20595;-74
2021/12/16 10:36:20;;;;;;;11.77;8.90;;;;;;;;;;5012343;28;20231;-74
2021/12/16 10:38:54;;;;;;;14.47;9.67;;;;;;;;;;5010600;28;20235;-75
2021/12/16 10:41:26;;;;;;;15.83;9.83;;;;;;;;;;5005329;28;20290;-74
2021/12/16 10:44:02;;;;;;;14.27;9.27;;;;;;;;;;5008074;28;20262;-75
2021/12/16 10:46:29;;;;;;;13.70;9.10;;;;;;;;;;5008020;28;20654;-75
2021/12/16 10:49:23;;;;;;;12.67;8.20;;;;;;;;;;5024468;28;20224;-74
2021/12/16 10:51:56;;;;;;;11.47;8.43;;;;;;;;;;5007069;28;20242;-74
2021/12/16 10:54:34;;;;;;;12.27;8.17;;;;;;;;;;5006639;28;20228;-75
2021/12/16 10:57:09;;;;;;;11.57;8.23;;;;;;;;;;4997071;28;20239;-75
2021/12/16 10:59:47;;;;;;;11.33;8.00;;;;;;;;;;5026571;28;20930;-75
2021/12/16 11:02:18;;;;;;;10.47;7.73;;;;;;;;;;5029417;28;20228;-75
2021/12/16 11:04:46;;;;;;;10.20;7.90;;;;;;;;;;5021968;28;20291;-76
2021/12/16 11:07:32;;;;;;;10.07;7.63;;;;;;;;;;5025890;28;20220;-76
2021/12/16 11:10:18;;;;;;;9.73;7.00;;;;;;;;;;5043723;28;20230;-75
2021/12/16 11:12:59;;;;;;;9.83;7.60;;;;;;;;;;5012310;28;20295;-75
2021/12/16 11:15:31;;;;;;;10.37;7.30;;;;;;;;;;5009413;28;20295;-75
2021/12/16 11:18:03;;;;;;;8.43;6.93;;;;;;;;;;4993077;28;20577;-76
2021/12/16 11:20:38;;;;;;;6.77;6.00;;;;;;;;;;5009768;28;20212;-76
2021/12/16 11:23:09;;;;;;;6.83;5.13;;;;;;;;;;5038504;28;20219;-76
2021/12/16 11:25:51;;;;;;;8.60;5.33;;;;;;;;;;5006332;28;20224;-76
2021/12/16 11:28:31;;;;;;;5.50;4.60;;;;;;;;;;5009854;28;20313;-76
2021/12/16 11:31:03;;;;;;;5.37;4.47;;;;;;;;;;4999070;28;20686;-75
2021/12/16 11:33:29;;;;;;;6.13;4.90;;;;;;;;;;4995385;28;20228;-75
2021/12/16 11:36:13;;;;;;;5.97;5.00;;;;;;;;;;5029972;28;20220;-75
2021/12/16 11:38:55;;;;;;;6.60;5.10;;;;;;;;;;5017448;28;20224;-75
2021/12/16 11:41:25;;;;;;;6.87;5.50;;;;;;;;;;4999455;28;20687;-73
2021/12/16 11:44:03;;;;;;;6.90;5.40;;;;;;;;;;5024888;28;20223;-74
2021/12/16 11:46:52;;;;;;;6.67;5.07;;;;;;;;;;4992959;28;20312;-75
2021/12/16 11:49:44;;;;;;;7.13;5.43;;;;;;;;;;4993971;28;20212;-75
2021/12/16 11:52:10;;;;;;;7.30;5.47;;;;;;;;;;5005389;28;20229;-75
2021/12/16 11:54:48;;;;;;;7.93;5.43;;;;;;;;;;5005766;28;20220;-75
2021/12/16 11:57:33;;;;;;;6.40;5.47;;;;;;;;;;4993886;28;20219;-75
2021/12/16 12:00:07;;;;;;;6.17;5.00;;;;;;;;;;4997015;28;20240;-75
2021/12/16 12:02:36;;;;;;;5.73;4.93;;;;;;;;;;5028664;28;20306;-76
2021/12/16 12:05:19;;;;;;;6.57;5.43;;;;;;;;;;5019801;28;20263;-76
2021/12/16 12:07:51;;;;;;;6.23;5.17;;;;;;;;;;5020689;28;20667;-76
2021/12/16 12:10:39;;;;;;;7.00;4.90;;;;;;;;;;4995434;28;20274;-75
2021/12/16 12:13:07;;;;;;;6.13;4.87;;;;;;;;;;4992640;28;20717;-75
2021/12/16 12:16:01;;;;;;;16.47;12.90;;;;;;;;;;5008354;28;20224;-75
2021/12/16 12:18:44;;;;;;;6.17;5.10;;;;;;;;;;5029150;28;20224;-76
2021/12/16 12:21:19;;;;;;;6.10;4.83;;;;;;;;;;4994930;28;20299;-75
2021/12/16 12:23:51;;;;;;;6.93;5.10;;;;;;;;;;4993656;28;20233;-75
2021/12/16 12:26:20;;;;;;;7.10;5.10;;;;;;;;;;5012315;28;20228;-76
2021/12/16 12:28:51;;;;;;;6.67;5.70;;;;;;;;;;5013392;28;20727;-75
2021/12/16 12:31:18;;;;;;;5.63;4.70;;;;;;;;;;5015367;28;20240;-76
2021/12/16 12:33:45;;;;;;;7.27;5.87;;;;;;;;;;4982518;28;20224;-76
2021/12/16 12:36:14;;;;;;;24.53;16.90;;;;;;;;;;5031880;28;20239;-75
2021/12/16 12:38:40;;;;;;;7.27;5.67;;;;;;;;;;5015313;28;20235;-75
2021/12/16 12:41:08;;;;;;;6.97;5.00;;;;;;;;;;5032889;28;20307;-75
2021/12/16 12:43:37;;;;;;;8.07;5.40;;;;;;;;;;5019448;28;20241;-74
2021/12/16 12:46:10;;;;;;;7.97;5.77;;;;;;;;;;5016436;28;20236;-75
2021/12/16 12:48:41;;;;;;;8.23;6.63;;;;;;;;;;5029017;28;20217;-75
2021/12/16 12:51:09;;;;;;;9.80;8.37;;;;;;;;;;4999920;28;20220;-75
2021/12/16 12:53:47;;;;;;;6.17;5.50;;;;;;;;;;5010709;28;20240;-75
2021/12/16 12:56:18;;;;;;;8.43;5.73;;;;;;;;;;4997065;28;20255;-75
2021/12/16 12:59:11;;;;;;;8.20;5.50;;;;;;;;;;4997666;28;20283;-75
2021/12/16 13:01:48;;;;;;;7.17;6.00;;;;;;;;;;5007759;28;20224;-75
2021/12/16 13:04:21;;;;;;;8.67;6.83;;;;;;;;;;4999669;28;20233;-75
2021/12/16 13:06:54;;;;;;;9.03;6.47;;;;;;;;;;4998672;28;20544;-76
2021/12/16 13:09:28;;;;;;;7.60;6.53;;;;;;;;;;5024920;28;20236;-75
2021/12/16 13:11:53;;;;;;;7.37;5.53;;;;;;;;;;5022074;28;20224;-75
2021/12/16 13:14:36;;;;;;;7.90;6.00;;;;;;;;;;5004059;28;20236;-76
2021/12/16 13:17:32;;;;;;;6.43;5.50;;;;;;;;;;4995417;28;20280;-79
2021/12/16 13:28:54;;;;;;;5.53;5.03;;;;;;;;;;5031578;28;20235;-76
2021/12/16 13:31:36;;;;;;;6.50;4.70;;;;;;;;;;5022127;28;20298;-76
2021/12/16 13:34:04;;;;;;;4.53;4.13;;;;;;;;;;5019097;28;20264;-77
2021/12/16 13:36:45;;;;;;;5.67;4.83;;;;;;;;;;5009755;28;20283;-76
2021/12/16 13:39:14;;;;;;;7.63;5.43;;;;;;;;;;4994282;28;20248;-76
2021/12/16 13:42:14;;;;;;;7.67;5.53;;;;;;;;;;4999292;28;20729;-75
2021/12/16 13:44:46;;;;;;;8.60;5.17;;;;;;;;;;4981690;28;20228;-76
2021/12/16 14:06:54;;;;;;;8.90;6.43;;;;;;;;;;5011416;28;20235;-73
2021/12/16 14:09:24;;;;;;;8.80;5.93;;;;;;;;;;5022437;28;20271;-74
2021/12/16 14:17:17;;;;;;;8.47;5.60;;;;;;;;;;5019354;28;20242;-74
2021/12/16 14:43:40;;;;;;;10.60;7.53;;;;;;;;;;5009017;28;20298;-76
2021/12/16 14:46:11;;;;;;;7.77;6.93;;;;;;;;;;4999440;28;20220;-76
2021/12/16 14:48:38;;;;;;;13.40;8.20;;;;;;;;;;5003401;28;20227;-76
2021/12/16 14:51:10;;;;;;;10.63;7.10;;;;;;;;;;5012388;28;20227;-75
2021/12/16 14:53:42;;;;;;;10.97;7.57;;;;;;;;;;5009177;28;20252;-75
2021/12/16 14:56:09;;;;;;;9.17;7.33;;;;;;;;;;5011738;28;20220;-76
2021/12/16 14:58:37;;;;;;;11.27;7.33;;;;;;;;;;5027953;28;20282;-76
2021/12/16 15:01:09;;;;;;;9.93;7.53;;;;;;;;;;5013757;28;20204;-75
2021/12/16 15:03:42;;;;;;;9.20;7.60;;;;;;;;;;4997543;28;20231;-75
2021/12/16 15:06:18;;;;;;;10.67;7.40;;;;;;;;;;5010574;28;20288;-76
2021/12/16 15:08:59;;;;;;;10.07;8.40;;;;;;;;;;5019111;28;20217;-75
2021/12/16 15:11:41;;;;;;;10.10;8.30;;;;;;;;;;4993595;28;20228;-75
2021/12/16 15:14:26;;;;;;;10.70;8.47;;;;;;;;;;5009462;28;20255;-76
2021/12/16 15:17:03;;;;;;;11.33;8.10;;;;;;;;;;4999639;28;20254;-75
2021/12/16 15:39:22;;;;;;;14.57;11.73;;;;;;;;;;4981464;28;20237;-76
2021/12/16 15:44:36;;;;;;;19.37;14.40;;;;;;;;;;5009717;28;20781;-76
2021/12/16 15:47:04;;;;;;;16.07;11.97;;;;;;;;;;4994320;28;20322;-77
2021/12/16 15:49:36;;;;;;;12.07;9.83;;;;;;;;;;5013778;28;20688;-76
2021/12/16 15:52:05;;;;;;;17.63;10.37;;;;;;;;;;5029421;28;20223;-75
2021/12/16 15:54:34;;;;;;;13.67;10.93;;;;;;;;;;4997175;28;20303;-75
2021/12/16 15:57:00;;;;;;;13.67;11.03;;;;;;;;;;4992937;28;20224;-76
2021/12/16 15:59:29;;;;;;;17.77;12.73;;;;;;;;;;5009255;28;20743;-75
2021/12/16 16:01:54;;;;;;;17.97;13.23;;;;;;;;;;5013826;28;20270;-76
2021/12/16 16:04:33;;;;;;;13.97;11.60;;;;;;;;;;5016195;28;20323;-76
2021/12/16 16:07:08;;;;;;;14.73;11.43;;;;;;;;;;5018656;28;20246;-76
2021/12/16 16:09:39;;;;;;;16.13;12.07;;;;;;;;;;4997995;28;20274;-76
2021/12/16 16:12:05;;;;;;;16.53;12.33;;;;;;;;;;4981022;28;20235;-76
2021/12/16 16:14:33;;;;;;;14.93;12.93;;;;;;;;;;5011781;28;20224;-76
2021/12/16 16:17:00;;;;;;;16.03;12.30;;;;;;;;;;4996367;28;20212;-76
2021/12/16 16:19:30;;;;;;;14.60;12.20;;;;;;;;;;5015386;28;20227;-75
2021/12/16 16:22:02;;;;;;;18.47;13.40;;;;;;;;;;5020544;28;20220;-79
2021/12/16 16:24:32;;;;;;;16.30;13.50;;;;;;;;;;5025225;28;20282;-76
2021/12/16 16:26:58;;;;;;;18.13;13.57;;;;;;;;;;5031763;28;20220;-75
2021/12/16 16:29:25;;;;;;;18.27;13.37;;;;;;;;;;5009354;28;20208;-77
2021/12/16 16:31:53;;;;;;;19.17;14.00;;;;;;;;;;5018186;28;20239;-77
2021/12/16 16:34:24;;;;;;;17.47;13.63;;;;;;;;;;4996980;28;20235;-75
2021/12/16 16:36:56;;;;;;;20.13;13.60;;;;;;;;;;4981132;28;20217;-76
2021/12/16 16:39:27;;;;;;;18.77;13.33;;;;;;;;;;5015981;28;25782;-77
2021/12/16 16:41:58;;;;;;;18.80;13.50;;;;;;;;;;5030744;28;20212;-74
2021/12/16 16:44:24;;;;;;;18.43;13.53;;;;;;;;;;5023547;28;20432;-75
2021/12/16 16:46:58;;;;;;;21.97;15.80;;;;;;;;;;4996018;28;20228;-75
2021/12/16 16:49:36;;;;;;;17.37;14.33;;;;;;;;;;5019748;28;20216;-77
2021/12/16 16:52:05;;;;;;;21.73;15.60;;;;;;;;;;4996737;28;20221;-76
2021/12/16 16:54:34;;;;;;;20.97;15.13;;;;;;;;;;5007134;28;20220;-74
2021/12/16 16:57:03;;;;;;;21.03;15.20;;;;;;;;;;5005173;28;20289;-74
2021/12/16 16:59:35;;;;;;;25.40;16.10;;;;;;;;;;5033676;28;20244;-74
2021/12/16 17:02:19;;;;;;;21.30;15.43;;;;;;;;;;5007444;28;20224;-74
2021/12/16 17:04:51;;;;;;;22.50;16.17;;;;;;;;;;5024125;28;20283;-74
2021/12/16 17:07:17;;;;;;;21.90;16.20;;;;;;;;;;5002055;28;20662;-75
2021/12/16 17:09:47;;;;;;;21.57;16.50;;;;;;;;;;5012165;28;20236;-74
2021/12/16 17:12:15;;;;;;;21.80;15.17;;;;;;;;;;5011847;28;20229;-74
2021/12/16 17:14:53;;;;;;;24.00;15.57;;;;;;;;;;4992116;28;20231;-74
2021/12/16 17:17:23;;;;;;;20.87;15.43;;;;;;;;;;4981714;28;20217;-75
2021/12/16 17:19:57;;;;;;;20.27;15.53;;;;;;;;;;5000884;28;20228;-74
2021/12/16 17:22:37;;;;;;;18.83;14.73;;;;;;;;;;5018848;28;20597;-75
2021/12/16 17:25:06;;;;;;;22.73;15.87;;;;;;;;;;4996180;28;20290;-74
2021/12/16 17:27:36;;;;;;;22.37;15.57;;;;;;;;;;5011762;28;20232;-74
2021/12/16 17:30:07;;;;;;;22.97;15.90;;;;;;;;;;4985573;28;20662;-76
2021/12/16 17:32:35;;;;;;;20.60;15.07;;;;;;;;;;4972928;28;20233;-74
2021/12/16 17:35:13;;;;;;;22.47;15.50;;;;;;;;;;4997254;28;20259;-74
2021/12/16 17:37:44;;;;;;;22.27;15.60;;;;;;;;;;5032183;28;20215;-75
2021/12/16 17:40:25;;;;;;;20.27;15.47;;;;;;;;;;5015501;28;20247;-75
2021/12/16 17:43:12;;;;;;;23.30;15.30;;;;;;;;;;5012675;28;20228;-75
2021/12/16 17:45:52;;;;;;;23.67;15.67;;;;;;;;;;5002054;28;20350;-75
2021/12/16 17:48:23;;;;;;;21.23;15.77;;;;;;;;;;5020548;28;20224;-75
2021/12/16 17:50:52;;;;;;;23.70;16.17;;;;;;;;;;5010863;28;20208;-75
2021/12/16 17:53:21;;;;;;;22.20;16.70;;;;;;;;;;4996393;28;20236;-75
2021/12/16 17:55:56;;;;;;;22.47;16.87;;;;;;;;;;5012072;28;20373;-74
2021/12/16 17:58:26;;;;;;;22.20;16.70;;;;;;;;;;4979265;28;20705;-74
2021/12/16 18:00:57;;;;;;;22.40;16.20;;;;;;;;;;5022958;28;20704;-75
2021/12/16 18:03:30;;;;;;;21.57;15.43;;;;;;;;;;5014388;28;20685;-74
2021/12/16 18:05:58;;;;;;;18.60;15.17;;;;;;;;;;5020789;28;20736;-75
2021/12/16 18:08:30;;;;;;;22.07;15.83;;;;;;;;;;4990838;28;20698;-75
2021/12/16 18:10:58;;;;;;;20.40;15.57;;;;;;;;;;4995799;28;20224;-74
2021/12/16 18:13:42;;;;;;;20.93;15.37;;;;;;;;;;4980398;28;20282;-74
2021/12/16 18:16:10;;;;;;;18.43;14.63;;;;;;;;;;5006630;28;20220;-75
2021/12/16 18:18:35;;;;;;;23.07;15.97;;;;;;;;;;4998804;28;20240;-74
2021/12/16 18:21:08;;;;;;;22.03;15.90;;;;;;;;;;5031151;28;20799;-74
2021/12/16 18:23:34;;;;;;;21.97;15.30;;;;;;;;;;5014779;28;20228;-74
2021/12/16 18:26:03;;;;;;;20.80;15.53;;;;;;;;;;5022442;28;20252;-74
2021/12/16 18:28:34;;;;;;;21.77;15.30;;;;;;;;;;5010238;28;20288;-74
2021/12/16 18:31:15;;;;;;;20.73;15.10;;;;;;;;;;5002510;28;20282;-74
2021/12/16 18:33:50;;;;;;;20.27;14.73;;;;;;;;;;5000574;28;20228;-74
2021/12/16 18:36:32;;;;;;;21.20;15.23;;;;;;;;;;5021463;28;20225;-74
2021/12/16 18:39:12;;;;;;;19.43;15.50;;;;;;;;;;5003392;28;20283;-74
2021/12/16 18:41:58;;;;;;;20.80;14.87;;;;;;;;;;5018253;28;20303;-74